createdAt,value
2022-12-18T00:01:32.303Z,25.92
2022-12-18T00:03:58.854Z,25.02
2022-12-18T00:06:25.771Z,25.73
2022-12-18T00:08:52.110Z,24.98
2022-12-18T00:11:20.672Z,24.65
2022-12-18T00:13:47.257Z,26.30
2022-12-18T00:16:14.929Z,25.88
2022-12-18T00:18:42.122Z,27.83
2022-12-18T00:21:11.174Z,24.88
2022-12-18T00:23:38.604Z,23.10
2022-12-18T00:26:06.873Z,22.98
2022-12-18T00:28:33.397Z,22.83
2022-12-18T00:31:07.316Z,26.20
2022-12-18T00:33:34.360Z,24.77
2022-12-18T00:36:27.292Z,24.27
2022-12-18T00:38:59.459Z,25.63
2022-12-18T00:41:45.178Z,25.15
2022-12-18T00:44:13.490Z,26.85
2022-12-18T00:46:39.988Z,24.58
2022-12-18T00:49:07.401Z,24.77
2022-12-18T00:51:34.024Z,24.42
2022-12-18T00:54:00.786Z,25.40
2022-12-18T00:56:27.157Z,24.42
2022-12-18T00:58:53.820Z,24.83
2022-12-18T01:01:20.750Z,25.45
2022-12-18T01:03:47.641Z,24.52
2022-12-18T01:06:14.857Z,23.83
2022-12-18T01:08:41.307Z,25.10
2022-12-18T01:11:09.250Z,25.23
2022-12-18T01:13:36.363Z,24.60
2022-12-18T01:16:03.021Z,25.38
2022-12-18T01:18:29.445Z,24.85
2022-12-18T01:20:58.705Z,25.77
2022-12-18T01:23:27.865Z,26.38
2022-12-18T01:25:54.218Z,24.63
2022-12-18T01:28:20.635Z,26.15
2022-12-18T01:30:49.967Z,26.80
2022-12-18T01:33:16.358Z,26.60
2022-12-18T01:35:42.936Z,25.25
2022-12-18T01:38:09.405Z,26.38
2022-12-18T01:40:35.908Z,25.73
2022-12-18T01:43:03.189Z,26.35
2022-12-18T01:45:30.616Z,26.50
2022-12-18T01:47:58.944Z,24.90
2022-12-18T01:50:28.093Z,25.20
2022-12-18T01:53:13.319Z,24.50
2022-12-18T01:55:43.204Z,26.05
2022-12-18T01:58:10.018Z,26.02
2022-12-18T02:00:36.581Z,25.95
2022-12-18T02:03:03.152Z,25.52
2022-12-18T02:05:32.585Z,25.33
2022-12-18T02:08:07.718Z,24.67
2022-12-18T02:10:37.158Z,24.33
2022-12-18T02:13:08.641Z,25.00
2022-12-18T02:15:44.236Z,25.58
2022-12-18T02:18:21.879Z,25.27
2022-12-18T02:20:54.624Z,26.77
2022-12-18T02:23:44.253Z,25.70
2022-12-18T02:26:15.493Z,25.23
2022-12-18T02:28:56.424Z,25.15
2022-12-18T02:31:25.400Z,25.30
2022-12-18T02:33:54.322Z,25.65
2022-12-18T02:36:24.696Z,24.30
2022-12-18T02:38:55.317Z,25.47
2022-12-18T02:41:22.196Z,24.00
2022-12-18T02:43:49.667Z,24.08
2022-12-18T02:46:28.433Z,23.90
2022-12-18T02:48:58.721Z,23.45
2022-12-18T02:51:29.994Z,23.88
2022-12-18T02:54:13.719Z,24.52
2022-12-18T02:56:45.358Z,23.70
2022-12-18T02:59:16.927Z,23.77
2022-12-18T03:01:56.409Z,23.40
2022-12-18T03:04:26.258Z,23.95
2022-12-18T03:06:55.686Z,24.30
2022-12-18T03:09:25.461Z,26.10
2022-12-18T03:12:14.785Z,24.17
2022-12-18T03:14:42.888Z,23.13
2022-12-18T03:17:14.642Z,21.73
2022-12-18T03:19:42.433Z,23.92
2022-12-18T03:22:09.261Z,23.92
2022-12-18T03:24:45.427Z,23.52
2022-12-18T03:27:13.945Z,23.52
2022-12-18T03:29:49.002Z,22.45
2022-12-18T03:32:25.853Z,22.73
2022-12-18T03:34:54.832Z,23.70
2022-12-18T03:37:23.181Z,23.02
2022-12-18T03:39:51.394Z,22.73
2022-12-18T03:42:22.778Z,23.05
2022-12-18T03:44:56.679Z,23.80
2022-12-18T03:47:39.526Z,23.17
2022-12-18T03:50:33.868Z,24.63
2022-12-18T03:53:04.569Z,22.33
2022-12-18T03:55:34.453Z,22.45
2022-12-18T03:58:04.386Z,21.00
2022-12-18T04:00:40.992Z,23.17
2022-12-18T04:03:10.058Z,23.20
2022-12-18T04:05:44.626Z,23.63
2022-12-18T04:08:12.720Z,21.05
2022-12-18T04:10:43.220Z,23.33
2022-12-18T04:13:09.912Z,21.73
2022-12-18T04:15:37.718Z,21.27
2022-12-18T04:18:06.185Z,22.85
2022-12-18T04:20:41.008Z,20.95
2022-12-18T04:23:08.002Z,22.70
2022-12-18T04:25:34.704Z,21.92
2022-12-18T04:28:07.680Z,22.02
2022-12-18T04:30:35.324Z,20.55
2022-12-18T04:33:01.901Z,20.67
2022-12-18T04:35:31.282Z,19.40
2022-12-18T04:37:57.748Z,20.20
2022-12-18T04:40:24.114Z,18.35
2022-12-18T04:42:51.701Z,19.05
2022-12-18T04:45:18.487Z,20.15
2022-12-18T04:47:45.138Z,18.90
2022-12-18T04:50:11.425Z,19.33
2022-12-18T04:52:38.110Z,20.42
2022-12-18T04:55:04.871Z,19.10
2022-12-18T04:57:31.469Z,17.85
2022-12-18T04:59:58.022Z,18.60
2022-12-18T05:02:24.608Z,19.90
2022-12-18T05:04:51.008Z,19.60
2022-12-18T05:07:17.322Z,18.85
2022-12-18T05:09:43.662Z,18.27
2022-12-18T05:12:10.142Z,18.75
2022-12-18T05:14:36.563Z,19.02
2022-12-18T05:17:03.273Z,17.38
2022-12-18T05:19:29.639Z,17.65
2022-12-18T05:21:56.096Z,16.88
2022-12-18T05:24:22.614Z,15.55
2022-12-18T05:26:48.967Z,16.52
2022-12-18T05:29:15.350Z,16.27
2022-12-18T05:31:42.773Z,15.85
2022-12-18T05:34:09.977Z,16.55
2022-12-18T05:36:37.685Z,15.73
2022-12-18T05:39:04.131Z,15.13
2022-12-18T05:41:30.877Z,15.52
2022-12-18T05:43:57.246Z,15.50
2022-12-18T05:46:23.604Z,16.33
2022-12-18T05:48:51.130Z,16.20
2022-12-18T05:51:19.150Z,14.32
2022-12-18T05:53:45.935Z,14.90
2022-12-18T05:56:14.163Z,15.50
2022-12-18T05:58:40.654Z,15.80
2022-12-18T06:01:08.231Z,15.25
2022-12-18T06:03:34.668Z,15.20
2022-12-18T06:06:01.148Z,14.20
2022-12-18T06:08:27.488Z,14.88
2022-12-18T06:10:53.869Z,13.95
2022-12-18T06:13:20.968Z,14.52
2022-12-18T06:15:47.464Z,14.50
2022-12-18T06:18:14.033Z,14.95
2022-12-18T06:20:42.294Z,14.55
2022-12-18T06:23:10.376Z,14.52
2022-12-18T06:25:38.478Z,15.20
2022-12-18T06:28:04.891Z,14.77
2022-12-18T06:30:31.612Z,14.38
2022-12-18T06:32:59.009Z,15.15
2022-12-18T06:35:25.338Z,14.77
2022-12-18T06:37:51.858Z,13.95
2022-12-18T06:40:18.721Z,14.48
2022-12-18T06:42:47.705Z,13.25
2022-12-18T06:45:14.068Z,12.70
2022-12-18T06:47:40.459Z,13.35
2022-12-18T06:50:07.270Z,14.60
2022-12-18T06:52:34.532Z,13.57
2022-12-18T06:55:01.088Z,13.82
2022-12-18T06:57:27.524Z,13.40
2022-12-18T06:59:53.945Z,14.77
2022-12-18T07:02:20.635Z,14.13
2022-12-18T07:04:47.211Z,14.65
2022-12-18T07:07:16.500Z,12.70
2022-12-18T07:09:42.801Z,14.95
2022-12-18T07:12:09.137Z,13.20
2022-12-18T07:14:35.434Z,13.48
2022-12-18T07:17:02.578Z,14.13
2022-12-18T07:19:30.058Z,14.52
2022-12-18T07:21:57.504Z,12.73
2022-12-18T07:24:23.815Z,13.43
2022-12-18T07:26:50.120Z,12.90
2022-12-18T07:29:16.705Z,13.65
2022-12-18T07:31:43.179Z,13.07
2022-12-18T07:34:13.525Z,14.15
2022-12-18T07:36:39.915Z,12.45
2022-12-18T07:39:06.330Z,13.95
2022-12-18T07:41:32.812Z,13.05
2022-12-18T07:44:09.858Z,12.85
2022-12-18T07:46:36.218Z,19.30
2022-12-18T07:49:02.553Z,47.20
2022-12-18T07:51:28.913Z,41.33
2022-12-18T07:53:55.295Z,26.85
2022-12-18T07:56:27.872Z,16.25
2022-12-18T07:58:55.612Z,14.63
2022-12-18T08:01:22.236Z,16.17
2022-12-18T08:03:48.782Z,18.55
2022-12-18T08:06:16.499Z,15.38
2022-12-18T08:08:43.244Z,14.18
2022-12-18T08:11:09.691Z,15.50
2022-12-18T08:13:36.330Z,13.82
2022-12-18T08:16:04.519Z,13.32
2022-12-18T08:18:30.952Z,14.13
2022-12-18T08:20:57.317Z,13.50
2022-12-18T08:23:26.468Z,13.55
2022-12-18T08:28:21.527Z,12.68
2022-12-18T08:30:52.160Z,13.30
2022-12-18T08:33:23.305Z,13.60
2022-12-18T08:35:52.964Z,14.68
2022-12-18T08:38:19.303Z,14.13
2022-12-18T08:40:46.409Z,12.25
2022-12-18T08:43:31.684Z,12.68
2022-12-18T08:45:58.282Z,13.90
2022-12-18T08:48:24.709Z,13.75
2022-12-18T08:50:55.011Z,13.73
2022-12-18T08:53:21.476Z,13.85
2022-12-18T08:55:50.357Z,13.93
2022-12-18T08:58:17.034Z,14.55
2022-12-18T09:00:43.622Z,14.00
2022-12-18T09:03:15.149Z,14.13
2022-12-18T09:05:41.874Z,13.75
2022-12-18T09:08:08.225Z,13.88
2022-12-18T09:10:38.867Z,14.43
2022-12-18T09:13:10.600Z,14.15
2022-12-18T09:15:41.206Z,13.98
2022-12-18T09:18:08.087Z,14.20
2022-12-18T09:20:34.475Z,13.48
2022-12-18T09:23:00.837Z,14.68
2022-12-18T09:25:32.677Z,13.90
2022-12-18T09:27:59.023Z,14.95
2022-12-18T09:30:26.439Z,14.20
2022-12-18T09:32:54.929Z,14.02
2022-12-18T09:35:21.375Z,14.38
2022-12-18T09:37:47.809Z,13.05
2022-12-18T09:40:21.573Z,13.52
2022-12-18T09:42:52.977Z,14.05
2022-12-18T09:47:48.089Z,12.38
2022-12-18T09:50:32.837Z,10.98
2022-12-18T09:53:01.281Z,13.05
2022-12-18T09:55:38.818Z,12.93
2022-12-18T09:58:14.126Z,13.60
2022-12-18T10:00:40.623Z,13.20
2022-12-18T10:03:11.708Z,12.73
2022-12-18T10:05:40.334Z,13.15
2022-12-18T10:08:09.643Z,12.13
2022-12-18T10:10:55.583Z,12.95
2022-12-18T10:13:26.681Z,13.73
2022-12-18T10:16:02.864Z,13.55
2022-12-18T10:18:38.488Z,13.50
2022-12-18T10:21:09.225Z,13.82
2022-12-18T10:23:54.205Z,15.52
2022-12-18T10:26:23.227Z,14.93
2022-12-18T10:28:50.238Z,14.90
2022-12-18T10:31:22.000Z,14.48
2022-12-18T10:33:51.421Z,14.82
2022-12-18T10:36:17.780Z,14.77
2022-12-18T10:38:44.788Z,15.05
2022-12-18T10:41:22.969Z,15.02
2022-12-18T10:43:51.717Z,19.40
2022-12-18T10:46:18.845Z,22.60
2022-12-18T10:48:48.335Z,20.42
2022-12-18T10:51:22.055Z,18.13
2022-12-18T10:53:53.407Z,14.40
2022-12-18T10:56:20.925Z,14.75
2022-12-18T10:58:56.061Z,12.20
2022-12-18T11:01:22.694Z,13.82
2022-12-18T11:03:55.250Z,15.32
2022-12-18T11:06:25.611Z,13.35
2022-12-18T11:09:21.692Z,13.05
2022-12-18T11:11:53.251Z,13.80
2022-12-18T11:14:25.789Z,14.15
2022-12-18T11:19:41.200Z,12.98
2022-12-18T11:22:27.389Z,12.40
2022-12-18T11:25:30.850Z,11.70
2022-12-18T11:27:49.256Z,12.13
2022-12-18T11:30:21.046Z,11.43
2022-12-18T11:32:56.492Z,10.68
2022-12-18T11:35:26.617Z,12.63
2022-12-18T11:37:58.933Z,11.52
2022-12-18T11:40:37.859Z,12.18
2022-12-18T11:43:24.644Z,11.98
2022-12-18T11:45:56.135Z,11.00
2022-12-18T11:48:30.808Z,11.85
2022-12-18T11:50:58.545Z,12.10
2022-12-18T11:53:28.045Z,12.38
2022-12-18T11:56:02.985Z,11.00
2022-12-18T11:58:47.560Z,10.93
2022-12-18T12:01:16.020Z,11.07
2022-12-18T12:03:51.773Z,38.40
2022-12-18T12:06:22.805Z,14.10
2022-12-18T12:09:08.048Z,12.82
2022-12-18T12:11:38.379Z,12.05
2022-12-18T12:14:04.701Z,12.60
2022-12-18T12:16:37.038Z,11.10
2022-12-18T12:19:26.570Z,11.48
2022-12-18T12:22:04.856Z,11.68
2022-12-18T12:24:49.153Z,12.35
2022-12-18T12:27:30.654Z,12.13
2022-12-18T12:30:00.146Z,11.23
2022-12-18T12:32:49.738Z,12.25
2022-12-18T12:35:19.638Z,12.57
2022-12-18T12:38:04.802Z,12.52
2022-12-18T12:40:53.789Z,11.75
2022-12-18T12:43:32.098Z,11.85
2022-12-18T12:46:01.202Z,11.90
2022-12-18T12:48:36.534Z,11.50
2022-12-18T12:51:05.306Z,12.93
2022-12-18T12:53:34.239Z,12.25
2022-12-18T12:56:01.793Z,12.75
2022-12-18T12:58:32.339Z,12.20
2022-12-18T13:01:23.101Z,13.30
2022-12-18T13:03:49.974Z,12.18
2022-12-18T13:06:27.191Z,12.18
2022-12-18T13:08:56.127Z,12.13
2022-12-18T13:11:48.661Z,12.40
2022-12-18T13:14:25.936Z,13.48
2022-12-18T13:16:52.384Z,13.25
2022-12-18T13:19:23.125Z,12.23
2022-12-18T13:21:57.115Z,12.45
2022-12-18T13:24:23.549Z,12.63
2022-12-18T13:26:49.990Z,13.05
2022-12-18T13:29:36.245Z,11.55
2022-12-18T13:32:03.001Z,13.13
2022-12-18T13:34:31.825Z,13.15
2022-12-18T13:37:18.024Z,12.10
2022-12-18T13:39:44.748Z,12.38
2022-12-18T13:42:31.164Z,12.07
2022-12-18T13:44:58.637Z,12.88
2022-12-18T13:47:35.537Z,12.35
2022-12-18T13:50:09.917Z,15.20
2022-12-18T13:52:40.770Z,12.30
2022-12-18T13:55:15.781Z,13.50
2022-12-18T13:57:42.433Z,13.30
2022-12-18T14:00:18.075Z,12.07
2022-12-18T14:02:45.649Z,11.77
2022-12-18T14:05:25.126Z,12.15
2022-12-18T14:07:54.533Z,12.75
2022-12-18T14:13:10.056Z,12.10
2022-12-18T14:15:41.409Z,12.35
2022-12-18T14:18:10.916Z,13.27
2022-12-18T14:20:40.406Z,12.60
2022-12-18T14:23:25.504Z,13.00
2022-12-18T14:25:51.804Z,12.70
2022-12-18T14:28:18.363Z,13.40
2022-12-18T14:30:46.160Z,12.25
2022-12-18T14:33:13.877Z,13.43
2022-12-18T14:35:44.143Z,13.30
2022-12-18T14:38:10.469Z,15.02
2022-12-18T14:40:36.882Z,15.23
2022-12-18T14:43:03.361Z,13.23
2022-12-18T14:45:41.657Z,13.10
2022-12-18T14:48:29.391Z,12.82
2022-12-18T14:51:03.449Z,12.85
2022-12-18T14:53:34.041Z,13.88
2022-12-18T14:56:00.919Z,14.27
2022-12-18T14:58:27.824Z,11.65
2022-12-18T15:00:55.401Z,12.52
2022-12-18T15:03:22.818Z,13.52
2022-12-18T15:05:49.590Z,12.85
2022-12-18T15:08:29.050Z,13.05
2022-12-18T15:10:55.556Z,13.73
2022-12-18T15:13:22.794Z,12.52
2022-12-18T15:15:49.733Z,12.40
2022-12-18T15:18:21.922Z,12.95
2022-12-18T15:20:51.512Z,12.57
2022-12-18T15:23:39.313Z,13.23
2022-12-18T15:26:10.029Z,12.18
2022-12-18T15:28:51.026Z,12.95
2022-12-18T15:31:17.958Z,12.98
2022-12-18T15:33:47.050Z,13.27
2022-12-18T15:36:14.224Z,13.23
2022-12-18T15:38:40.669Z,13.40
2022-12-18T15:41:22.931Z,12.93
2022-12-18T15:43:51.779Z,13.07
2022-12-18T15:46:19.589Z,12.80
2022-12-18T15:48:47.955Z,12.75
2022-12-18T15:51:19.233Z,13.07
2022-12-18T15:53:45.660Z,13.73
2022-12-18T15:56:30.713Z,12.93
2022-12-18T15:58:57.644Z,14.07
2022-12-18T16:01:25.473Z,13.77
2022-12-18T16:03:52.055Z,14.15
2022-12-18T16:06:18.586Z,13.23
2022-12-18T16:08:44.989Z,14.30
2022-12-18T16:11:21.789Z,13.45
2022-12-18T16:13:48.223Z,13.38
2022-12-18T16:16:14.687Z,13.88
2022-12-18T16:18:41.198Z,13.95
2022-12-18T16:21:08.920Z,14.05
2022-12-18T16:23:35.369Z,14.18
2022-12-18T16:26:01.730Z,14.40
2022-12-18T16:28:28.058Z,14.48
2022-12-18T16:30:56.464Z,14.35
2022-12-18T16:33:22.994Z,14.98
2022-12-18T16:35:52.249Z,12.15
2022-12-18T16:38:18.591Z,13.98
2022-12-18T16:41:04.976Z,12.48
2022-12-18T16:43:31.427Z,14.20
2022-12-18T16:45:59.667Z,13.32
2022-12-18T16:48:26.032Z,13.10
2022-12-18T16:51:00.242Z,14.45
2022-12-18T16:53:26.691Z,11.60
2022-12-18T16:55:56.463Z,14.77
2022-12-18T16:58:22.906Z,14.45
2022-12-18T17:00:49.274Z,13.93
2022-12-18T17:03:16.118Z,13.30
2022-12-18T17:05:42.669Z,14.73
2022-12-18T17:08:09.141Z,13.82
2022-12-18T17:10:36.012Z,14.35
2022-12-18T17:13:02.519Z,14.65
2022-12-18T17:15:28.898Z,10.18
2022-12-18T17:17:55.301Z,14.32
2022-12-18T17:20:23.003Z,14.70
2022-12-18T17:22:49.366Z,15.18
2022-12-18T17:25:15.792Z,14.98
2022-12-18T17:27:42.105Z,14.07
2022-12-18T17:30:09.342Z,14.80
2022-12-18T17:32:35.826Z,15.18
2022-12-18T17:35:06.906Z,14.65
2022-12-18T17:37:35.025Z,15.82
2022-12-18T17:40:01.879Z,14.88
2022-12-18T17:42:28.313Z,13.85
2022-12-18T17:44:55.840Z,14.18
2022-12-18T17:47:22.247Z,16.42
2022-12-18T17:49:48.686Z,15.25
2022-12-18T17:52:15.073Z,15.52
2022-12-18T17:54:42.159Z,14.38
2022-12-18T17:57:08.797Z,15.32
2022-12-18T17:59:35.290Z,15.73
2022-12-18T18:02:02.218Z,14.40
2022-12-18T18:04:29.553Z,15.55
2022-12-18T18:06:55.979Z,16.25
2022-12-18T18:09:22.296Z,15.90
2022-12-18T18:12:07.609Z,15.95
2022-12-18T18:14:34.178Z,15.68
2022-12-18T18:17:04.150Z,15.57
2022-12-18T18:19:30.962Z,15.65
2022-12-18T18:21:57.369Z,13.13
2022-12-18T18:24:24.130Z,14.88
2022-12-18T18:26:50.579Z,15.43
2022-12-18T18:29:18.916Z,15.50
2022-12-18T18:31:46.081Z,15.20
2022-12-18T18:34:16.565Z,14.88
2022-12-18T18:36:43.272Z,14.77
2022-12-18T18:39:09.704Z,15.50
2022-12-18T18:41:36.862Z,15.80
2022-12-18T18:44:03.360Z,16.65
2022-12-18T18:46:29.987Z,15.52
2022-12-18T18:48:56.445Z,14.10
2022-12-18T18:51:22.807Z,15.82
2022-12-18T18:53:49.904Z,15.65
2022-12-18T18:59:03.744Z,15.52
2022-12-18T19:01:30.240Z,15.63
2022-12-18T19:03:56.850Z,15.48
2022-12-18T19:06:24.587Z,16.88
2022-12-18T19:08:51.742Z,15.55
2022-12-18T19:11:37.149Z,15.23
2022-12-18T19:14:07.341Z,15.35
2022-12-18T19:16:34.333Z,15.40
2022-12-18T19:19:02.365Z,15.00
2022-12-18T19:21:31.386Z,14.27
2022-12-18T19:24:00.695Z,16.25
2022-12-18T19:26:30.124Z,15.07
2022-12-18T19:29:06.661Z,14.38
2022-12-18T19:31:36.085Z,16.33
2022-12-18T19:34:02.670Z,16.27
2022-12-18T19:36:29.673Z,15.05
2022-12-18T19:38:58.419Z,15.48
2022-12-18T19:41:25.611Z,16.00
2022-12-18T19:43:54.102Z,15.05
2022-12-18T19:46:21.483Z,17.10
2022-12-18T19:48:48.279Z,16.35
2022-12-18T19:51:16.275Z,15.93
2022-12-18T19:53:43.859Z,16.40
2022-12-18T19:56:11.416Z,17.08
2022-12-18T19:58:37.810Z,16.63
2022-12-18T20:01:04.579Z,18.73
2022-12-18T20:03:33.438Z,18.05
2022-12-18T20:06:09.158Z,14.80
2022-12-18T20:08:35.678Z,19.08
2022-12-18T20:11:02.018Z,14.98
2022-12-18T20:13:28.405Z,17.73
2022-12-18T20:15:54.719Z,17.80
2022-12-18T20:18:21.098Z,17.50
2022-12-18T20:20:48.089Z,20.73
2022-12-18T20:23:16.641Z,20.30
2022-12-18T20:25:43.045Z,18.20
2022-12-18T20:28:09.425Z,18.85
2022-12-18T20:30:35.843Z,20.48
2022-12-18T20:33:02.185Z,14.90
2022-12-18T20:35:31.071Z,20.98
2022-12-18T20:37:57.756Z,19.15
2022-12-18T20:40:25.756Z,20.35
2022-12-18T20:42:53.226Z,19.83
2022-12-18T20:45:19.647Z,20.33
2022-12-18T20:47:46.202Z,20.63
2022-12-18T20:50:12.625Z,20.40
2022-12-18T20:52:39.063Z,18.95
2022-12-18T20:55:06.443Z,19.67
2022-12-18T20:57:33.242Z,20.52
2022-12-18T21:00:00.706Z,20.40
2022-12-18T21:02:27.311Z,19.48
2022-12-18T21:04:54.148Z,19.42
2022-12-18T21:07:20.462Z,19.17
2022-12-18T21:09:46.822Z,20.65
2022-12-18T21:12:35.149Z,21.73
2022-12-18T21:15:11.662Z,18.48
2022-12-18T21:17:44.491Z,20.30
2022-12-18T21:20:13.313Z,18.85
2022-12-18T21:22:44.406Z,20.30
2022-12-18T21:25:10.840Z,22.80
2022-12-18T21:27:37.151Z,22.00
2022-12-18T21:30:03.762Z,21.33
2022-12-18T21:32:33.495Z,19.90
2022-12-18T21:35:00.034Z,22.42
2022-12-18T21:37:26.637Z,19.95
2022-12-18T21:39:52.960Z,22.15
2022-12-18T21:42:38.309Z,20.13
2022-12-18T21:45:04.963Z,21.75
2022-12-18T21:47:31.380Z,20.17
2022-12-18T21:49:57.669Z,21.83
2022-12-18T21:52:32.372Z,22.83
2022-12-18T21:55:09.086Z,22.05
2022-12-18T21:57:37.074Z,22.50
2022-12-18T22:00:04.148Z,22.98
2022-12-18T22:02:39.011Z,22.33
2022-12-18T22:05:05.802Z,22.42
2022-12-18T22:07:32.090Z,22.40
2022-12-18T22:09:58.581Z,23.23
2022-12-18T22:12:35.150Z,20.27
2022-12-18T22:15:02.529Z,23.05
2022-12-18T22:17:29.012Z,23.83
2022-12-18T22:19:55.794Z,20.60
2022-12-18T22:22:22.192Z,25.05
2022-12-18T22:24:48.527Z,22.98
2022-12-18T22:27:14.877Z,24.40
2022-12-18T22:29:59.936Z,23.10
2022-12-18T22:32:31.349Z,21.02
2022-12-18T22:35:07.921Z,24.02
2022-12-18T22:37:35.754Z,20.67
2022-12-18T22:40:03.766Z,23.85
2022-12-18T22:42:30.942Z,25.00
2022-12-18T22:44:57.347Z,22.58
2022-12-18T22:47:29.238Z,23.92
2022-12-18T22:49:56.331Z,22.65
2022-12-18T22:52:24.286Z,24.27
2022-12-18T22:54:53.286Z,23.40
2022-12-18T22:57:20.559Z,22.33
2022-12-18T22:59:47.065Z,23.15
2022-12-18T23:02:13.617Z,25.45
2022-12-18T23:04:40.094Z,23.23
2022-12-18T23:07:06.714Z,24.90
2022-12-18T23:09:33.153Z,24.80
2022-12-18T23:11:59.620Z,23.27
2022-12-18T23:14:26.051Z,24.65
2022-12-18T23:16:52.342Z,24.08
2022-12-18T23:19:19.661Z,22.92
2022-12-18T23:21:46.043Z,23.52
2022-12-18T23:24:12.396Z,21.60
2022-12-18T23:26:38.769Z,18.80
2022-12-18T23:29:05.193Z,21.38
2022-12-18T23:31:33.381Z,22.33
2022-12-18T23:34:00.621Z,24.95
2022-12-18T23:36:27.183Z,21.50
2022-12-18T23:38:54.999Z,24.92
2022-12-18T23:41:22.788Z,23.88
2022-12-18T23:43:49.332Z,25.50
2022-12-18T23:46:23.183Z,26.75
2022-12-18T23:48:49.948Z,26.23
2022-12-18T23:51:17.266Z,22.25
2022-12-18T23:53:44.331Z,22.48
2022-12-18T23:56:11.171Z,24.15
2022-12-18T23:58:38.009Z,22.42
